Time;durP1;ratioP1;P1;durP2;ratioP2;P2;SDS_P1;SDS_P2;PMS_P1;PMS_P2;Temp;Humidity;BMP_temperature;BMP_pressure;BME280_temperature;BME280_humidity;BME280_pressure;Samples;Min_cycle;Max_cycle;Signal;HPM_P1;HPM_P2
2022/08/12 00:43:32;;;;;;;1.85;1.40;;;;;;;;;;2098285;28;20025;-66
2022/08/12 00:44:51;;;;;;;3.40;1.40;;;;;;;;;;2099986;28;20392;-67
2022/08/12 00:47:50;;;;;;;2.58;1.80;;;;;;;;;;2099811;28;20021;-67
2022/08/12 00:49:09;;;;;;;1.70;1.60;;;;;;;;;;2100923;28;20064;-68
2022/08/12 00:50:28;;;;;;;3.85;1.77;;;;;;;;;;2099821;28;20032;-67
2022/08/12 00:53:27;;;;;;;3.40;1.70;;;;;;;;;;2098120;28;20028;-67
2022/08/12 00:54:51;;;;;;;3.58;1.55;;;;;;;;;;2098630;28;20637;-66
2022/08/12 00:56:10;;;;;;;2.50;1.45;;;;;;;;;;2098529;28;20393;-67
2022/08/12 00:57:31;;;;;;;2.88;1.63;;;;;;;;;;2100611;28;20020;-67
2022/08/12 00:58:51;;;;;;;1.55;1.45;;;;;;;;;;2100128;28;20494;-66
2022/08/12 01:00:12;;;;;;;2.60;1.65;;;;;;;;;;2097213;28;20060;-66
2022/08/12 01:01:32;;;;;;;2.53;1.48;;;;;;;;;;2099282;28;20401;-68
2022/08/12 01:02:56;;;;;;;2.72;1.88;;;;;;;;;;2100236;28;20536;-67
2022/08/12 01:12:31;;;;;;;2.40;1.65;;;;;;;;;;2099284;28;20033;-67
2022/08/12 01:13:50;;;;;;;3.25;1.90;;;;;;;;;;2098854;28;20037;-67
2022/08/12 01:15:11;;;;;;;2.30;1.60;;;;;;;;;;2097638;28;20039;-67
2022/08/12 01:16:30;;;;;;;3.33;1.73;;;;;;;;;;2099565;28;20024;-67
2022/08/12 01:17:49;;;;;;;3.40;2.00;;;;;;;;;;2097614;28;20021;-66
2022/08/12 01:19:11;;;;;;;3.65;1.88;;;;;;;;;;2100119;28;20036;-66
2022/08/12 01:20:46;;;;;;;2.25;1.70;;;;;;;;;;2099175;28;20032;-67
2022/08/12 01:22:04;;;;;;;1.63;1.48;;;;;;;;;;2099974;28;20032;-66
2022/08/12 01:23:47;;;;;;;1.70;1.60;;;;;;;;;;2100607;28;20036;-67
2022/08/12 01:25:10;;;;;;;5.70;2.22;;;;;;;;;;2099500;28;20048;-67
2022/08/12 01:26:31;;;;;;;1.75;1.65;;;;;;;;;;2099713;28;20016;-67
2022/08/12 01:27:51;;;;;;;2.00;1.90;;;;;;;;;;2098097;28;20021;-66
2022/08/12 01:29:12;;;;;;;2.08;1.98;;;;;;;;;;2099787;28;20029;-67
2022/08/12 01:30:32;;;;;;;3.20;1.80;;;;;;;;;;2097352;28;20032;-68
2022/08/12 01:31:53;;;;;;;2.50;1.80;;;;;;;;;;2098655;28;20352;-68
2022/08/12 01:33:14;;;;;;;1.92;1.55;;;;;;;;;;2100738;28;20024;-68
2022/08/12 01:34:37;;;;;;;2.72;1.83;;;;;;;;;;2098471;28;20385;-67
2022/08/12 01:35:59;;;;;;;1.50;1.40;;;;;;;;;;2098706;28;20028;-67
2022/08/12 01:37:19;;;;;;;2.47;1.85;;;;;;;;;;2098880;28;20020;-68
2022/08/12 01:38:40;;;;;;;1.75;1.65;;;;;;;;;;2097445;28;20067;-68
2022/08/12 01:40:00;;;;;;;2.35;1.65;;;;;;;;;;2097166;28;20025;-68
2022/08/12 01:41:20;;;;;;;2.00;1.60;;;;;;;;;;2099895;28;20028;-66
2022/08/12 01:42:44;;;;;;;2.92;1.60;;;;;;;;;;2098155;28;20428;-67
2022/08/12 01:44:03;;;;;;;2.03;1.65;;;;;;;;;;2097942;28;20024;-67
2022/08/12 01:45:23;;;;;;;3.15;1.55;;;;;;;;;;2098322;28;22512;-67
2022/08/12 01:46:49;;;;;;;3.10;1.80;;;;;;;;;;2100459;28;20028;-66
2022/08/12 01:48:14;;;;;;;1.75;1.60;;;;;;;;;;2097446;28;20017;-68
2022/08/12 01:49:39;;;;;;;1.90;1.80;;;;;;;;;;2099741;28;20037;-66
2022/08/12 01:51:03;;;;;;;1.50;1.40;;;;;;;;;;2099655;28;20028;-68
2022/08/12 01:52:43;;;;;;;2.10;1.55;;;;;;;;;;2099339;28;20481;-69
2022/08/12 01:54:04;;;;;;;3.50;2.00;;;;;;;;;;2099102;28;20020;-67
2022/08/12 01:55:34;;;;;;;1.90;1.80;;;;;;;;;;2098150;28;20021;-66
2022/08/12 01:56:57;;;;;;;2.42;1.70;;;;;;;;;;2098082;28;20107;-67
2022/08/12 01:58:19;;;;;;;2.38;2.03;;;;;;;;;;2098395;28;20032;-67
2022/08/12 01:59:45;;;;;;;2.20;2.10;;;;;;;;;;2098722;28;20032;-65
2022/08/12 02:01:07;;;;;;;1.90;1.77;;;;;;;;;;2099144;28;20016;-69
2022/08/12 02:02:31;;;;;;;4.70;2.20;;;;;;;;;;2099264;28;20480;-67
2022/08/12 02:12:28;;;;;;;2.25;2.05;;;;;;;;;;2099753;28;20033;-67
2022/08/12 02:14:06;;;;;;;2.00;1.63;;;;;;;;;;2097050;28;20021;-67
2022/08/12 02:15:40;;;;;;;2.65;1.90;;;;;;;;;;2098052;28;20032;-67
2022/08/12 02:17:14;;;;;;;3.15;2.00;;;;;;;;;;2101315;28;20162;-67
2022/08/12 02:18:46;;;;;;;2.30;2.10;;;;;;;;;;2100980;28;20032;-66
2022/08/12 02:20:11;;;;;;;3.08;1.90;;;;;;;;;;2097686;28;20024;-66
2022/08/12 02:21:33;;;;;;;2.13;1.95;;;;;;;;;;2097711;28;20020;-66
2022/08/12 02:22:53;;;;;;;2.42;1.98;;;;;;;;;;2101198;28;20028;-66
2022/08/12 02:24:14;;;;;;;1.95;1.85;;;;;;;;;;2099740;28;20024;-66
2022/08/12 02:25:36;;;;;;;4.00;2.17;;;;;;;;;;2101662;28;20055;-67
2022/08/12 02:26:55;;;;;;;2.05;1.85;;;;;;;;;;2099984;28;20029;-69
2022/08/12 02:28:14;;;;;;;3.72;1.70;;;;;;;;;;2100414;28;20107;-67
2022/08/12 02:29:33;;;;;;;2.40;2.20;;;;;;;;;;2099557;28;20032;-68
2022/08/12 02:30:53;;;;;;;2.05;1.75;;;;;;;;;;2100873;28;20028;-67
2022/08/12 02:32:13;;;;;;;2.13;1.90;;;;;;;;;;2100236;28;20032;-68
2022/08/12 02:33:32;;;;;;;2.60;2.22;;;;;;;;;;2100334;28;20048;-66
2022/08/12 02:34:52;;;;;;;2.47;2.20;;;;;;;;;;2100747;28;20033;-67
2022/08/12 02:36:11;;;;;;;2.05;1.85;;;;;;;;;;2099973;28;20032;-66
2022/08/12 02:37:30;;;;;;;1.70;1.60;;;;;;;;;;2099884;28;20036;-67
2022/08/12 02:38:49;;;;;;;2.70;1.88;;;;;;;;;;2101314;28;20492;-66
2022/08/12 02:40:10;;;;;;;2.03;1.90;;;;;;;;;;2099643;28;20028;-67
2022/08/12 02:41:31;;;;;;;2.78;1.73;;;;;;;;;;2096393;28;20068;-66
2022/08/12 02:43:02;;;;;;;1.98;1.73;;;;;;;;;;2100020;28;20028;-67
2022/08/12 02:44:22;;;;;;;1.98;1.75;;;;;;;;;;2099539;28;20028;-66
2022/08/12 02:45:44;;;;;;;2.00;1.75;;;;;;;;;;2100111;28;20025;-67
2022/08/12 02:47:05;;;;;;;2.00;1.80;;;;;;;;;;2102132;28;20025;-67
2022/08/12 02:48:39;;;;;;;2.08;1.90;;;;;;;;;;2100512;28;20484;-66
2022/08/12 02:50:00;;;;;;;2.55;1.98;;;;;;;;;;2101293;28;20024;-68
2022/08/12 02:51:23;;;;;;;2.03;1.85;;;;;;;;;;2099324;28;20028;-67
2022/08/12 02:52:42;;;;;;;2.63;1.90;;;;;;;;;;2100971;28;20044;-67
2022/08/12 02:54:04;;;;;;;2.30;2.10;;;;;;;;;;2100762;28;20099;-66
2022/08/12 02:55:26;;;;;;;2.80;2.60;;;;;;;;;;2100468;28;20131;-66
2022/08/12 02:56:45;;;;;;;2.15;1.92;;;;;;;;;;2099549;28;20115;-66
2022/08/12 02:58:06;;;;;;;2.83;2.22;;;;;;;;;;2100526;28;20075;-68
2022/08/12 02:59:27;;;;;;;2.40;2.20;;;;;;;;;;2097401;28;20028;-66
2022/08/12 03:00:47;;;;;;;6.70;2.28;;;;;;;;;;2097794;28;20033;-67
2022/08/12 03:02:08;;;;;;;2.30;2.20;;;;;;;;;;2100289;28;20020;-66
2022/08/12 03:03:30;;;;;;;1.98;1.88;;;;;;;;;;2099207;28;20488;-67
2022/08/12 03:04:55;;;;;;;2.45;1.83;;;;;;;;;;2100035;28;20059;-67
2022/08/12 03:06:20;;;;;;;2.40;2.10;;;;;;;;;;2101227;28;20496;-68
2022/08/12 03:07:44;;;;;;;1.80;1.70;;;;;;;;;;2099229;28;20920;-67
2022/08/12 03:09:03;;;;;;;2.53;2.17;;;;;;;;;;2101023;28;20024;-67
2022/08/12 03:10:23;;;;;;;1.95;1.65;;;;;;;;;;2100411;28;20033;-67
2022/08/12 03:11:46;;;;;;;1.70;1.60;;;;;;;;;;2102119;28;21028;-66
2022/08/12 03:13:06;;;;;;;2.60;1.90;;;;;;;;;;2100041;28;20028;-67
2022/08/12 03:14:26;;;;;;;2.05;1.88;;;;;;;;;;2099919;28;20028;-67
2022/08/12 03:15:46;;;;;;;2.08;1.88;;;;;;;;;;2099080;28;20040;-67
2022/08/12 03:17:25;;;;;;;2.38;1.73;;;;;;;;;;2099108;28;20033;-67
2022/08/12 03:18:44;;;;;;;2.95;1.98;;;;;;;;;;2098657;28;20385;-66
2022/08/12 03:20:04;;;;;;;2.20;1.60;;;;;;;;;;2102512;28;20040;-67
2022/08/12 03:21:26;;;;;;;2.85;1.80;;;;;;;;;;2100408;28;20473;-68
2022/08/12 03:22:46;;;;;;;2.28;1.80;;;;;;;;;;2100134;28;20024;-67
2022/08/12 03:24:05;;;;;;;2.08;1.70;;;;;;;;;;2100094;28;20037;-67
2022/08/12 03:25:26;;;;;;;2.17;1.98;;;;;;;;;;2100173;28;20029;-67
2022/08/12 03:26:46;;;;;;;1.95;1.75;;;;;;;;;;2101525;28;20032;-67
2022/08/12 03:28:10;;;;;;;1.90;1.48;;;;;;;;;;2100554;28;20042;-67
2022/08/12 03:29:29;;;;;;;2.03;1.77;;;;;;;;;;2101096;28;20029;-66
2022/08/12 03:30:50;;;;;;;2.00;1.80;;;;;;;;;;2099344;28;20462;-67
2022/08/12 03:32:10;;;;;;;2.20;1.98;;;;;;;;;;2099686;28;20420;-67
2022/08/12 03:33:33;;;;;;;1.88;1.77;;;;;;;;;;2101295;28;20033;-67
2022/08/12 03:34:55;;;;;;;3.67;2.28;;;;;;;;;;2100090;28;20103;-67
2022/08/12 03:36:19;;;;;;;1.70;1.60;;;;;;;;;;2100052;28;20029;-66
2022/08/12 03:37:38;;;;;;;;;;;;;;;;;;2099508;28;20028;-66
2022/08/12 03:42:20;;;;;;;1.70;1.60;;;;;;;;;;2100581;28;20059;-67
2022/08/12 04:00:24;;;;;;;2.65;2.42;;;;;;;;;;2099092;28;20502;-66
2022/08/12 04:01:43;;;;;;;2.58;1.95;;;;;;;;;;2099468;28;20028;-66
2022/08/12 04:03:02;;;;;;;2.22;2.00;;;;;;;;;;2099812;28;20029;-66
2022/08/12 04:04:22;;;;;;;2.95;1.75;;;;;;;;;;2100448;28;20103;-67
2022/08/12 04:05:41;;;;;;;5.43;2.45;;;;;;;;;;2100906;28;20449;-67
2022/08/12 04:07:06;;;;;;;2.40;2.10;;;;;;;;;;2098984;28;20416;-66
2022/08/12 04:08:25;;;;;;;3.58;2.20;;;;;;;;;;2098491;28;20028;-67
2022/08/12 04:09:45;;;;;;;2.30;2.10;;;;;;;;;;2099711;28;20396;-66
2022/08/12 04:14:20;;;;;;;3.90;1.98;;;;;;;;;;2100153;28;20044;-68
2022/08/12 04:15:39;;;;;;;3.15;2.30;;;;;;;;;;2097153;28;20020;-68
2022/08/12 04:16:58;;;;;;;2.22;2.03;;;;;;;;;;2098835;28;20036;-68
2022/08/12 04:18:17;;;;;;;1.90;1.80;;;;;;;;;;2100030;28;20060;-68
2022/08/12 04:19:37;;;;;;;2.40;2.20;;;;;;;;;;2099038;28;20040;-66
2022/08/12 04:20:56;;;;;;;1.90;1.80;;;;;;;;;;2096961;28;20040;-69
2022/08/12 04:22:15;;;;;;;2.58;2.15;;;;;;;;;;2100125;28;20024;-68
2022/08/12 04:23:38;;;;;;;2.75;2.13;;;;;;;;;;2099151;28;20028;-69
2022/08/12 04:24:59;;;;;;;2.10;1.90;;;;;;;;;;2100346;28;20024;-69
2022/08/12 04:26:18;;;;;;;2.50;2.28;;;;;;;;;;2100589;28;20025;-67
2022/08/12 04:27:38;;;;;;;2.17;1.80;;;;;;;;;;2098886;28;20029;-68
2022/08/12 04:28:58;;;;;;;2.38;2.00;;;;;;;;;;2098472;28;20122;-67
2022/08/12 04:30:17;;;;;;;2.33;2.13;;;;;;;;;;2095131;28;20040;-66
2022/08/12 04:31:38;;;;;;;2.13;1.90;;;;;;;;;;2100141;28;20024;-67
2022/08/12 04:32:57;;;;;;;3.00;2.13;;;;;;;;;;2098679;28;20107;-66
2022/08/12 04:34:17;;;;;;;2.08;1.85;;;;;;;;;;2099930;28;20500;-66
2022/08/12 04:35:36;;;;;;;2.00;1.90;;;;;;;;;;2099013;28;20040;-66
2022/08/12 04:36:54;;;;;;;2.00;1.85;;;;;;;;;;2099764;28;20021;-67
2022/08/12 04:38:15;;;;;;;1.92;1.83;;;;;;;;;;2098049;28;20048;-67
2022/08/12 04:39:34;;;;;;;3.97;2.03;;;;;;;;;;2100717;28;20049;-67
2022/08/12 04:40:52;;;;;;;3.78;2.05;;;;;;;;;;2098152;28;20025;-67
2022/08/12 04:42:12;;;;;;;2.10;1.83;;;;;;;;;;2100250;28;20020;-67
2022/08/12 04:43:31;;;;;;;4.18;2.05;;;;;;;;;;2097911;28;20032;-68
2022/08/12 04:44:50;;;;;;;2.13;1.73;;;;;;;;;;2099117;28;20539;-68
2022/08/12 04:46:10;;;;;;;4.38;1.83;;;;;;;;;;2095623;28;20028;-67
2022/08/12 04:47:29;;;;;;;2.10;1.70;;;;;;;;;;2099685;28;20025;-67
2022/08/12 04:48:48;;;;;;;2.40;1.77;;;;;;;;;;2100118;28;20476;-67
2022/08/12 04:50:07;;;;;;;3.20;2.00;;;;;;;;;;2098661;28;20028;-68
2022/08/12 04:51:27;;;;;;;2.92;1.70;;;;;;;;;;2099699;28;20032;-68
2022/08/12 04:52:46;;;;;;;2.45;2.17;;;;;;;;;;2097707;28;20095;-67
2022/08/12 04:54:05;;;;;;;2.10;1.90;;;;;;;;;;2097460;28;20042;-67
2022/08/12 04:55:24;;;;;;;2.10;1.90;;;;;;;;;;2098454;28;20024;-66
2022/08/12 04:56:43;;;;;;;3.53;1.85;;;;;;;;;;2097020;28;20032;-67
2022/08/12 04:58:02;;;;;;;2.13;1.63;;;;;;;;;;2101072;28;20035;-67
2022/08/12 04:59:21;;;;;;;4.70;1.88;;;;;;;;;;2100156;28;20040;-65
2022/08/12 05:00:40;;;;;;;3.30;2.17;;;;;;;;;;2099281;28;20024;-66
2022/08/12 05:01:59;;;;;;;3.58;2.00;;;;;;;;;;2099298;28;20033;-66
2022/08/12 05:03:18;;;;;;;3.67;2.00;;;;;;;;;;2101712;28;20126;-65
2022/08/12 05:04:37;;;;;;;3.97;2.00;;;;;;;;;;2100003;28;20543;-65
2022/08/12 05:05:57;;;;;;;3.08;1.85;;;;;;;;;;2100058;28;20064;-66
2022/08/12 05:07:16;;;;;;;1.67;1.58;;;;;;;;;;2098618;28;20020;-66
2022/08/12 05:08:35;;;;;;;2.45;1.70;;;;;;;;;;2101022;28;20036;-67
2022/08/12 05:09:55;;;;;;;2.00;1.63;;;;;;;;;;2099468;28;20044;-66
2022/08/12 05:11:14;;;;;;;1.70;1.60;;;;;;;;;;2100720;28;20024;-66
2022/08/12 05:12:36;;;;;;;1.83;1.70;;;;;;;;;;2100596;28;20107;-66
2022/08/12 05:13:57;;;;;;;3.83;1.95;;;;;;;;;;2098240;28;20046;-66
2022/08/12 05:15:16;;;;;;;2.25;2.00;;;;;;;;;;2099467;28;20064;-65
2022/08/12 05:16:36;;;;;;;2.20;1.70;;;;;;;;;;2100106;28;20025;-65
2022/08/12 05:17:55;;;;;;;2.33;1.85;;;;;;;;;;2099899;28;20032;-66
2022/08/12 05:19:15;;;;;;;3.10;1.80;;;;;;;;;;2097104;28;20032;-65
2022/08/12 05:20:34;;;;;;;2.03;1.80;;;;;;;;;;2097862;28;20103;-67
2022/08/12 05:21:53;;;;;;;2.95;2.03;;;;;;;;;;2099807;28;20435;-65
2022/08/12 05:23:14;;;;;;;1.90;1.70;;;;;;;;;;2100153;28;20052;-65
2022/08/12 05:24:33;;;;;;;10.20;2.25;;;;;;;;;;2097977;28;20032;-67
2022/08/12 05:25:55;;;;;;;4.68;1.90;;;;;;;;;;2100517;28;20036;-66
2022/08/12 05:27:14;;;;;;;1.55;1.45;;;;;;;;;;2101376;28;20033;-67
2022/08/12 05:28:33;;;;;;;3.72;1.60;;;;;;;;;;2099843;28;20024;-66
2022/08/12 05:29:53;;;;;;;3.58;1.80;;;;;;;;;;2095627;28;20036;-67
2022/08/12 05:31:12;;;;;;;2.05;1.65;;;;;;;;;;2098550;28;20029;-66
2022/08/12 05:32:31;;;;;;;2.10;2.00;;;;;;;;;;2100175;28;20029;-67
2022/08/12 05:33:50;;;;;;;3.25;1.70;;;;;;;;;;2099148;28;20037;-66
2022/08/12 05:35:09;;;;;;;3.13;1.90;;;;;;;;;;2100103;28;20032;-66
2022/08/12 05:36:28;;;;;;;2.22;1.52;;;;;;;;;;2098665;28;20115;-66
2022/08/12 05:37:47;;;;;;;1.85;1.45;;;;;;;;;;2099233;28;20032;-66
2022/08/12 05:39:06;;;;;;;4.22;1.92;;;;;;;;;;2099676;28;20048;-66
2022/08/12 05:40:25;;;;;;;3.80;1.85;;;;;;;;;;2099587;28;20096;-67
2022/08/12 05:41:43;;;;;;;1.55;1.40;;;;;;;;;;2099496;28;20450;-67
2022/08/12 05:43:03;;;;;;;3.65;1.67;;;;;;;;;;2100059;28;20028;-67
2022/08/12 05:44:22;;;;;;;2.15;1.58;;;;;;;;;;2099838;28;20028;-67
2022/08/12 05:45:41;;;;;;;2.35;2.08;;;;;;;;;;2099342;28;20028;-67
2022/08/12 05:47:00;;;;;;;1.88;1.63;;;;;;;;;;2099854;28;20427;-67
2022/08/12 05:48:19;;;;;;;2.00;1.50;;;;;;;;;;2101372;28;20052;-67
2022/08/12 05:49:39;;;;;;;1.90;1.70;;;;;;;;;;2099813;28;20511;-68
2022/08/12 05:50:58;;;;;;;4.38;1.77;;;;;;;;;;2101683;28;20033;-68
2022/08/12 05:52:17;;;;;;;1.45;1.35;;;;;;;;;;2101479;28;20058;-67
2022/08/12 05:53:38;;;;;;;1.67;1.58;;;;;;;;;;2099300;28;20033;-66
2022/08/12 05:54:57;;;;;;;2.72;1.50;;;;;;;;;;2100578;28;20024;-67
2022/08/12 05:56:19;;;;;;;1.67;1.58;;;;;;;;;;2100989;28;20028;-67
2022/08/12 05:57:38;;;;;;;2.35;1.70;;;;;;;;;;2099614;28;20504;-63
2022/08/12 05:58:58;;;;;;;3.70;1.67;;;;;;;;;;2100861;28;20036;-63
2022/08/12 06:00:17;;;;;;;2.42;1.70;;;;;;;;;;2101518;28;20040;-62
2022/08/12 06:01:36;;;;;;;1.63;1.52;;;;;;;;;;2101745;28;20059;-63
2022/08/12 06:02:59;;;;;;;2.33;1.50;;;;;;;;;;2101119;28;20028;-64
2022/08/12 06:04:19;;;;;;;1.75;1.65;;;;;;;;;;2101153;28;20021;-63
2022/08/12 06:05:38;;;;;;;4.32;1.85;;;;;;;;;;2101238;28;20033;-63
2022/08/12 06:06:57;;;;;;;4.38;1.88;;;;;;;;;;2101066;28;20036;-64
2022/08/12 06:08:17;;;;;;;3.88;1.83;;;;;;;;;;2102276;28;20028;-63
2022/08/12 06:09:36;;;;;;;2.05;1.73;;;;;;;;;;2102037;28;20504;-63
2022/08/12 06:10:55;;;;;;;4.25;1.60;;;;;;;;;;2101273;28;20056;-63
2022/08/12 06:12:16;;;;;;;3.35;1.67;;;;;;;;;;2101625;28;20016;-63
2022/08/12 06:13:38;;;;;;;1.50;1.40;;;;;;;;;;2102273;28;20114;-64
2022/08/12 06:14:57;;;;;;;3.53;1.58;;;;;;;;;;2101094;28;20427;-64
2022/08/12 06:16:17;;;;;;;5.95;1.92;;;;;;;;;;2101983;28;20400;-64
2022/08/12 06:17:36;;;;;;;3.42;1.70;;;;;;;;;;2102328;28;20024;-64
2022/08/12 06:18:55;;;;;;;1.52;1.42;;;;;;;;;;2100971;28;20481;-63
2022/08/12 06:20:15;;;;;;;3.95;1.77;;;;;;;;;;2101329;28;20028;-63
2022/08/12 06:21:36;;;;;;;3.63;1.80;;;;;;;;;;2101366;28;20033;-63
2022/08/12 06:22:55;;;;;;;1.75;1.40;;;;;;;;;;2102119;28;20028;-63
2022/08/12 06:24:17;;;;;;;3.00;1.60;;;;;;;;;;2100711;28;20129;-63
2022/08/12 06:25:36;;;;;;;3.42;1.90;;;;;;;;;;2101009;28;20069;-63
2022/08/12 06:26:56;;;;;;;1.88;1.77;;;;;;;;;;2102263;28;20016;-63
2022/08/12 06:28:20;;;;;;;2.50;2.22;;;;;;;;;;2102323;28;20021;-63
2022/08/12 06:29:38;;;;;;;2.75;1.50;;;;;;;;;;2101675;28;20020;-63
2022/08/12 06:30:57;;;;;;;2.78;1.85;;;;;;;;;;2099912;28;20048;-63
2022/08/12 06:32:16;;;;;;;1.88;1.70;;;;;;;;;;2101618;28;20024;-63
2022/08/12 06:33:35;;;;;;;2.72;1.95;;;;;;;;;;2100900;28;20028;-63
2022/08/12 06:34:55;;;;;;;2.33;1.70;;;;;;;;;;2100298;28;20484;-64
2022/08/12 06:36:16;;;;;;;2.85;1.73;;;;;;;;;;2101801;28;20039;-63
2022/08/12 06:37:39;;;;;;;4.63;1.80;;;;;;;;;;2100467;28;20103;-63
2022/08/12 06:38:58;;;;;;;2.60;1.25;;;;;;;;;;2102026;28;20032;-63
2022/08/12 06:43:33;;;;;;;3.65;1.92;;;;;;;;;;2100273;28;20025;-65
2022/08/12 06:44:52;;;;;;;2.95;1.83;;;;;;;;;;2100892;28;20890;-66
2022/08/12 06:46:12;;;;;;;1.90;1.80;;;;;;;;;;2100264;28;20505;-66
2022/08/12 06:47:35;;;;;;;2.10;1.80;;;;;;;;;;2101033;28;20020;-67
2022/08/12 06:49:00;;;;;;;2.25;1.67;;;;;;;;;;2100942;28;20442;-68
2022/08/12 06:50:19;;;;;;;3.42;1.70;;;;;;;;;;2101229;28;20032;-67
2022/08/12 06:51:38;;;;;;;4.20;1.73;;;;;;;;;;2100120;28;20020;-68
2022/08/12 06:52:59;;;;;;;4.97;1.70;;;;;;;;;;2100602;28;20024;-66
2022/08/12 06:54:18;;;;;;;1.85;1.63;;;;;;;;;;2099930;28;20904;-64
2022/08/12 06:55:38;;;;;;;2.08;1.88;;;;;;;;;;2101116;28;20477;-65
2022/08/12 06:56:57;;;;;;;3.85;1.90;;;;;;;;;;2100453;28;20037;-65
2022/08/12 06:58:16;;;;;;;6.30;1.75;;;;;;;;;;2100657;28;20137;-66
2022/08/12 06:59:39;;;;;;;2.55;1.50;;;;;;;;;;2102032;28;20051;-66
2022/08/12 07:00:58;;;;;;;2.20;1.70;;;;;;;;;;2101411;28;20059;-65
2022/08/12 07:02:19;;;;;;;2.70;1.60;;;;;;;;;;2100568;28;20032;-64
2022/08/12 07:03:38;;;;;;;3.88;2.00;;;;;;;;;;2101526;28;20024;-65
2022/08/12 07:04:58;;;;;;;3.13;1.88;;;;;;;;;;2100869;28;20027;-68
2022/08/12 07:06:17;;;;;;;3.55;1.60;;;;;;;;;;2100916;28;20036;-67
2022/08/12 07:07:37;;;;;;;2.30;1.88;;;;;;;;;;2101903;28;20096;-68
2022/08/12 07:08:56;;;;;;;2.38;1.40;;;;;;;;;;2099290;28;20024;-68
2022/08/12 07:10:16;;;;;;;2.20;1.88;;;;;;;;;;2099184;28;20024;-68
2022/08/12 07:11:43;;;;;;;4.13;1.85;;;;;;;;;;2100721;28;20432;-68
2022/08/12 07:13:02;;;;;;;2.08;1.48;;;;;;;;;;2101238;28;20037;-68
2022/08/12 07:14:21;;;;;;;2.45;1.95;;;;;;;;;;2101187;28;20036;-68
2022/08/12 07:15:42;;;;;;;3.92;1.73;;;;;;;;;;2099623;28;20480;-68
2022/08/12 07:17:02;;;;;;;3.28;1.90;;;;;;;;;;2100434;28;20032;-68
2022/08/12 07:18:31;;;;;;;3.00;1.40;;;;;;;;;;2102121;28;20044;-68
2022/08/12 07:19:50;;;;;;;4.18;1.50;;;;;;;;;;2100296;28;20070;-68
2022/08/12 07:21:13;;;;;;;1.73;1.63;;;;;;;;;;2101372;28;20064;-68
2022/08/12 07:22:32;;;;;;;3.50;1.42;;;;;;;;;;2101542;28;20024;-67
2022/08/12 07:23:50;;;;;;;1.60;1.38;;;;;;;;;;2101997;28;20028;-67
2022/08/12 07:26:47;;;;;;;4.47;1.42;;;;;;;;;;2098973;28;20024;-68
2022/08/12 07:28:12;;;;;;;2.08;1.80;;;;;;;;;;2100939;28;20024;-65
2022/08/12 07:29:30;;;;;;;3.50;1.73;;;;;;;;;;2100236;28;20025;-68
2022/08/12 07:30:50;;;;;;;4.22;1.60;;;;;;;;;;2100047;28;20025;-66
2022/08/12 07:32:09;;;;;;;1.45;1.35;;;;;;;;;;2101967;28;20429;-64
2022/08/12 07:33:29;;;;;;;1.48;1.30;;;;;;;;;;2100773;28;20375;-65
2022/08/12 07:34:48;;;;;;;2.58;1.63;;;;;;;;;;2101177;28;20024;-66
2022/08/12 07:36:09;;;;;;;1.75;1.65;;;;;;;;;;2100943;28;20032;-67
2022/08/12 07:37:28;;;;;;;3.90;1.83;;;;;;;;;;2101998;28;20025;-67
2022/08/12 07:38:50;;;;;;;2.92;1.70;;;;;;;;;;2100827;28;20080;-67
2022/08/12 07:40:10;;;;;;;2.28;1.77;;;;;;;;;;2100791;28;20028;-67
2022/08/12 07:41:30;;;;;;;1.85;1.50;;;;;;;;;;2098519;28;20504;-66
2022/08/12 07:42:49;;;;;;;2.47;1.40;;;;;;;;;;2100631;28;20028;-66
2022/08/12 07:44:08;;;;;;;2.47;1.85;;;;;;;;;;2101509;28;20032;-66
2022/08/12 07:45:27;;;;;;;3.15;1.70;;;;;;;;;;2100546;28;20552;-67
2022/08/12 07:46:46;;;;;;;2.85;1.65;;;;;;;;;;2098345;28;20472;-67
2022/08/12 07:48:05;;;;;;;4.88;1.75;;;;;;;;;;2101877;28;20044;-67
2022/08/12 07:49:26;;;;;;;6.57;2.13;;;;;;;;;;2102217;28;20028;-67
2022/08/12 07:50:45;;;;;;;3.70;1.80;;;;;;;;;;2101488;28;20043;-67
2022/08/12 07:52:04;;;;;;;2.30;1.67;;;;;;;;;;2100426;28;20036;-67
2022/08/12 07:53:23;;;;;;;4.10;1.92;;;;;;;;;;2101234;28;20107;-66
2022/08/12 07:54:43;;;;;;;1.75;1.65;;;;;;;;;;2100670;28;20029;-66
2022/08/12 07:56:03;;;;;;;4.90;1.77;;;;;;;;;;2101419;28;20028;-66
2022/08/12 07:57:22;;;;;;;2.53;1.80;;;;;;;;;;2099034;28;20063;-66
2022/08/12 07:58:41;;;;;;;3.20;1.77;;;;;;;;;;2099735;28;20036;-66
2022/08/12 08:00:02;;;;;;;1.85;1.70;;;;;;;;;;2100328;28;20040;-66
2022/08/12 08:01:21;;;;;;;2.80;1.60;;;;;;;;;;2101387;28;20463;-66
2022/08/12 08:02:40;;;;;;;3.78;1.80;;;;;;;;;;2101023;28;20028;-67
2022/08/12 08:05:39;;;;;;;2.08;1.48;;;;;;;;;;2099179;28;20024;-67
2022/08/12 08:06:59;;;;;;;2.22;1.63;;;;;;;;;;2099080;28;20099;-67
2022/08/12 08:08:19;;;;;;;4.75;1.70;;;;;;;;;;2099858;28;20393;-68
2022/08/12 08:09:38;;;;;;;2.42;1.80;;;;;;;;;;2100708;28;20107;-68
2022/08/12 08:12:52;;;;;;;1.70;1.60;;;;;;;;;;2100203;28;20032;-68
2022/08/12 08:14:11;;;;;;;2.90;1.60;;;;;;;;;;2100451;28;20025;-69
2022/08/12 08:15:32;;;;;;;3.50;1.70;;;;;;;;;;2098836;28;20385;-68
2022/08/12 08:16:50;;;;;;;1.65;1.52;;;;;;;;;;2098746;28;20028;-68
2022/08/12 08:18:10;;;;;;;1.52;1.40;;;;;;;;;;2101151;28;20111;-68
2022/08/12 08:19:32;;;;;;;2.83;1.67;;;;;;;;;;2098559;28;20025;-67
2022/08/12 08:20:51;;;;;;;1.65;1.55;;;;;;;;;;2100587;28;20071;-68
2022/08/12 08:22:10;;;;;;;3.92;1.95;;;;;;;;;;2099066;28;21493;-66
2022/08/12 08:25:07;;;;;;;2.15;1.75;;;;;;;;;;2100229;28;20480;-68
2022/08/12 08:26:25;;;;;;;2.67;1.88;;;;;;;;;;2101151;28;20582;-68
2022/08/12 08:27:45;;;;;;;1.80;1.50;;;;;;;;;;2099347;28;20031;-68
2022/08/12 08:29:04;;;;;;;3.30;1.95;;;;;;;;;;2099465;28;20024;-67
2022/08/12 08:30:23;;;;;;;4.15;1.75;;;;;;;;;;2099606;28;20124;-68
2022/08/12 08:31:45;;;;;;;1.60;1.50;;;;;;;;;;2100189;28;20032;-68
2022/08/12 08:33:08;;;;;;;2.20;1.85;;;;;;;;;;2100179;28;20024;-67
2022/08/12 08:34:28;;;;;;;2.78;1.90;;;;;;;;;;2100431;28;20024;-67
2022/08/12 08:35:48;;;;;;;2.10;1.80;;;;;;;;;;2100317;28;20032;-68
2022/08/12 08:37:06;;;;;;;2.38;2.03;;;;;;;;;;2098907;28;20024;-66
2022/08/12 08:38:25;;;;;;;1.95;1.73;;;;;;;;;;2100392;28;20032;-69
2022/08/12 08:39:44;;;;;;;3.05;1.83;;;;;;;;;;2100193;28;20043;-69
2022/08/12 08:42:56;;;;;;;1.63;1.52;;;;;;;;;;2095712;28;20485;-69
2022/08/12 08:44:15;;;;;;;6.97;1.90;;;;;;;;;;2099017;28;20028;-69
2022/08/12 08:45:34;;;;;;;4.15;1.77;;;;;;;;;;2100818;28;20477;-70
2022/08/12 08:46:54;;;;;;;7.55;1.75;;;;;;;;;;2100742;28;20040;-68
2022/08/12 08:48:13;;;;;;;1.83;1.60;;;;;;;;;;2099450;28;20031;-68
2022/08/12 08:49:34;;;;;;;4.63;2.00;;;;;;;;;;2101510;28;20016;-67
2022/08/12 08:50:53;;;;;;;1.80;1.50;;;;;;;;;;2100561;28;20036;-68
2022/08/12 08:52:12;;;;;;;1.77;1.58;;;;;;;;;;2098488;28;20392;-68
2022/08/12 08:53:31;;;;;;;1.90;1.73;;;;;;;;;;2100504;28;20063;-68
2022/08/12 08:54:50;;;;;;;2.13;1.65;;;;;;;;;;2098955;28;20036;-67
2022/08/12 08:56:10;;;;;;;1.52;1.35;;;;;;;;;;2099419;28;20024;-67
2022/08/12 08:57:29;;;;;;;2.25;1.83;;;;;;;;;;2099858;28;20111;-67
2022/08/12 08:58:48;;;;;;;3.47;1.63;;;;;;;;;;2099260;28;20059;-67
2022/08/12 09:00:10;;;;;;;3.08;1.50;;;;;;;;;;2099355;28;20028;-66
2022/08/12 09:01:29;;;;;;;2.15;1.95;;;;;;;;;;2101511;28;20664;-66
2022/08/12 09:02:49;;;;;;;2.10;1.80;;;;;;;;;;2099590;28;20051;-69
2022/08/12 09:04:11;;;;;;;5.65;1.92;;;;;;;;;;2099978;28;20040;-69
2022/08/12 09:05:31;;;;;;;1.83;1.73;;;;;;;;;;2100245;28;20178;-70
2022/08/12 09:06:57;;;;;;;4.03;1.95;;;;;;;;;;2099484;28;20103;-69
2022/08/12 09:08:18;;;;;;;1.73;1.63;;;;;;;;;;2099826;28;20025;-68
2022/08/12 09:09:37;;;;;;;3.28;1.90;;;;;;;;;;2099703;28;20052;-69
2022/08/12 09:13:26;;;;;;;2.10;1.42;;;;;;;;;;2100019;28;20055;-68
2022/08/12 09:14:13;;;;;;;1.58;1.48;;;;;;;;;;2100400;28;20020;-68
2022/08/12 09:15:34;;;;;;;1.95;1.83;;;;;;;;;;2099256;28;20377;-69
2022/08/12 09:16:53;;;;;;;2.10;1.90;;;;;;;;;;2100233;28;20461;-69
2022/08/12 09:18:14;;;;;;;1.65;1.55;;;;;;;;;;2099779;28;20468;-70
2022/08/12 09:19:33;;;;;;;3.20;1.85;;;;;;;;;;2100015;28;20400;-70
2022/08/12 09:20:52;;;;;;;1.67;1.58;;;;;;;;;;2100199;28;20056;-72
2022/08/12 09:22:11;;;;;;;3.03;1.58;;;;;;;;;;2099630;28;20476;-68
2022/08/12 09:23:30;;;;;;;1.58;1.48;;;;;;;;;;2100179;28;20025;-68
2022/08/12 09:24:51;;;;;;;1.67;1.58;;;;;;;;;;2101073;28;20512;-68
2022/08/12 09:26:10;;;;;;;2.03;1.65;;;;;;;;;;2102258;28;20017;-68
2022/08/12 09:27:29;;;;;;;4.90;1.80;;;;;;;;;;2102353;28;20032;-68
2022/08/12 09:28:49;;;;;;;2.67;1.42;;;;;;;;;;2102214;28;20032;-68
2022/08/12 09:30:13;;;;;;;3.47;1.77;;;;;;;;;;2100661;28;20103;-68
2022/08/12 09:31:33;;;;;;;1.63;1.52;;;;;;;;;;2098961;28;20032;-66
2022/08/12 09:32:52;;;;;;;2.67;1.45;;;;;;;;;;2099767;28;20025;-68
2022/08/12 09:34:11;;;;;;;2.10;1.85;;;;;;;;;;2102472;28;20036;-68
2022/08/12 09:35:32;;;;;;;2.83;1.50;;;;;;;;;;2102458;28;20396;-68
2022/08/12 09:36:50;;;;;;;3.13;1.40;;;;;;;;;;2101747;28;20028;-68
2022/08/12 09:38:14;;;;;;;2.38;1.60;;;;;;;;;;2100259;28;20177;-68
2022/08/12 09:39:33;;;;;;;3.33;1.20;;;;;;;;;;2101175;28;20736;-68
2022/08/12 09:40:52;;;;;;;1.75;1.65;;;;;;;;;;2102205;28;20057;-68
2022/08/12 09:45:27;;;;;;;2.67;1.40;;;;;;;;;;2101712;28;20059;-68
2022/08/12 09:46:46;;;;;;;3.63;1.50;;;;;;;;;;2101824;28;20048;-68